sensor_id;sensor_type;location;lat;lon;timestamp;P1;durP1;ratioP1;P2;durP2;ratioP2
19879;SDS011;10102;50.828;4.416;2024-01-07T00:01:07;14.65;;;9.05;;
19879;SDS011;10102;50.828;4.416;2024-01-07T00:03:35;19.67;;;10.73;;
19879;SDS011;10102;50.828;4.416;2024-01-07T00:06:00;12.68;;;8.30;;
19879;SDS011;10102;50.828;4.416;2024-01-07T00:08:26;16.38;;;9.52;;
19879;SDS011;10102;50.828;4.416;2024-01-07T00:10:52;28.50;;;13.52;;
19879;SDS011;10102;50.828;4.416;2024-01-07T00:13:17;23.45;;;12.88;;
19879;SDS011;10102;50.828;4.416;2024-01-07T00:15:43;17.90;;;10.43;;
19879;SDS011;10102;50.828;4.416;2024-01-07T00:18:09;21.17;;;9.73;;
19879;SDS011;10102;50.828;4.416;2024-01-07T00:20:34;14.23;;;9.75;;
19879;SDS011;10102;50.828;4.416;2024-01-07T00:23:00;17.25;;;9.73;;
19879;SDS011;10102;50.828;4.416;2024-01-07T00:25:26;17.08;;;9.95;;
19879;SDS011;10102;50.828;4.416;2024-01-07T00:27:52;21.70;;;12.85;;
19879;SDS011;10102;50.828;4.416;2024-01-07T00:30:21;16.30;;;10.52;;
19879;SDS011;10102;50.828;4.416;2024-01-07T00:32:47;14.88;;;10.35;;
19879;SDS011;10102;50.828;4.416;2024-01-07T00:35:12;19.17;;;10.95;;
19879;SDS011;10102;50.828;4.416;2024-01-07T00:37:38;22.85;;;11.90;;
19879;SDS011;10102;50.828;4.416;2024-01-07T00:40:04;16.83;;;10.75;;
19879;SDS011;10102;50.828;4.416;2024-01-07T00:42:31;19.05;;;12.05;;
19879;SDS011;10102;50.828;4.416;2024-01-07T00:44:56;14.18;;;8.73;;
19879;SDS011;10102;50.828;4.416;2024-01-07T00:47:22;15.48;;;10.27;;
19879;SDS011;10102;50.828;4.416;2024-01-07T00:49:48;20.45;;;11.20;;
19879;SDS011;10102;50.828;4.416;2024-01-07T00:52:13;17.70;;;11.50;;
19879;SDS011;10102;50.828;4.416;2024-01-07T00:54:39;17.17;;;10.93;;
19879;SDS011;10102;50.828;4.416;2024-01-07T00:57:05;16.98;;;11.27;;
19879;SDS011;10102;50.828;4.416;2024-01-07T00:59:31;17.10;;;9.80;;
19879;SDS011;10102;50.828;4.416;2024-01-07T01:01:56;15.90;;;10.07;;
19879;SDS011;10102;50.828;4.416;2024-01-07T01:04:22;16.27;;;10.38;;
19879;SDS011;10102;50.828;4.416;2024-01-07T01:06:48;16.17;;;9.73;;
19879;SDS011;10102;50.828;4.416;2024-01-07T01:09:13;17.20;;;11.15;;
19879;SDS011;10102;50.828;4.416;2024-01-07T01:11:39;19.27;;;11.60;;
19879;SDS011;10102;50.828;4.416;2024-01-07T01:14:05;17.08;;;11.02;;
19879;SDS011;10102;50.828;4.416;2024-01-07T01:16:30;14.95;;;10.38;;
19879;SDS011;10102;50.828;4.416;2024-01-07T01:18:56;17.08;;;10.45;;
19879;SDS011;10102;50.828;4.416;2024-01-07T01:21:22;16.33;;;11.00;;
19879;SDS011;10102;50.828;4.416;2024-01-07T01:23:48;15.70;;;10.68;;
19879;SDS011;10102;50.828;4.416;2024-01-07T01:26:14;15.20;;;10.30;;
19879;SDS011;10102;50.828;4.416;2024-01-07T01:28:40;16.52;;;10.45;;
19879;SDS011;10102;50.828;4.416;2024-01-07T01:31:06;20.95;;;11.50;;
19879;SDS011;10102;50.828;4.416;2024-01-07T01:33:32;15.88;;;10.65;;
19879;SDS011;10102;50.828;4.416;2024-01-07T01:35:57;14.35;;;9.13;;
19879;SDS011;10102;50.828;4.416;2024-01-07T01:38:23;17.67;;;12.13;;
19879;SDS011;10102;50.828;4.416;2024-01-07T01:40:52;17.70;;;11.40;;
19879;SDS011;10102;50.828;4.416;2024-01-07T01:43:22;16.60;;;10.40;;
19879;SDS011;10102;50.828;4.416;2024-01-07T01:45:52;16.63;;;10.52;;
19879;SDS011;10102;50.828;4.416;2024-01-07T01:48:18;17.67;;;10.85;;
19879;SDS011;10102;50.828;4.416;2024-01-07T01:50:45;16.30;;;10.70;;
19879;SDS011;10102;50.828;4.416;2024-01-07T01:53:12;16.85;;;11.40;;
19879;SDS011;10102;50.828;4.416;2024-01-07T01:55:38;19.25;;;12.32;;
19879;SDS011;10102;50.828;4.416;2024-01-07T01:58:04;15.77;;;10.93;;
19879;SDS011;10102;50.828;4.416;2024-01-07T02:00:30;15.95;;;11.20;;
19879;SDS011;10102;50.828;4.416;2024-01-07T02:02:57;18.58;;;12.45;;
19879;SDS011;10102;50.828;4.416;2024-01-07T02:05:22;16.23;;;11.48;;
19879;SDS011;10102;50.828;4.416;2024-01-07T02:07:48;17.85;;;11.38;;
19879;SDS011;10102;50.828;4.416;2024-01-07T02:10:14;19.00;;;11.52;;
19879;SDS011;10102;50.828;4.416;2024-01-07T02:12:40;18.63;;;11.20;;
19879;SDS011;10102;50.828;4.416;2024-01-07T02:15:06;18.02;;;10.10;;
19879;SDS011;10102;50.828;4.416;2024-01-07T02:17:32;17.73;;;10.60;;
19879;SDS011;10102;50.828;4.416;2024-01-07T02:19:58;17.10;;;10.13;;
19879;SDS011;10102;50.828;4.416;2024-01-07T02:22:23;17.80;;;10.30;;
19879;SDS011;10102;50.828;4.416;2024-01-07T02:24:49;16.02;;;10.00;;
19879;SDS011;10102;50.828;4.416;2024-01-07T02:27:15;16.90;;;10.25;;
19879;SDS011;10102;50.828;4.416;2024-01-07T02:29:40;13.75;;;9.23;;
19879;SDS011;10102;50.828;4.416;2024-01-07T02:32:06;15.38;;;9.60;;
19879;SDS011;10102;50.828;4.416;2024-01-07T02:34:31;14.15;;;9.50;;
19879;SDS011;10102;50.828;4.416;2024-01-07T02:36:57;13.40;;;8.35;;
19879;SDS011;10102;50.828;4.416;2024-01-07T02:39:23;14.98;;;9.25;;
19879;SDS011;10102;50.828;4.416;2024-01-07T02:41:49;17.90;;;10.15;;
19879;SDS011;10102;50.828;4.416;2024-01-07T02:44:15;15.25;;;9.60;;
19879;SDS011;10102;50.828;4.416;2024-01-07T02:46:41;16.20;;;9.52;;
19879;SDS011;10102;50.828;4.416;2024-01-07T02:49:06;17.48;;;10.07;;
19879;SDS011;10102;50.828;4.416;2024-01-07T02:51:32;18.17;;;10.77;;
19879;SDS011;10102;50.828;4.416;2024-01-07T02:53:58;15.68;;;9.85;;
19879;SDS011;10102;50.828;4.416;2024-01-07T02:56:24;17.65;;;10.25;;
19879;SDS011;10102;50.828;4.416;2024-01-07T02:58:49;16.98;;;11.18;;
19879;SDS011;10102;50.828;4.416;2024-01-07T03:01:15;15.68;;;9.88;;
19879;SDS011;10102;50.828;4.416;2024-01-07T03:03:41;16.08;;;10.70;;
19879;SDS011;10102;50.828;4.416;2024-01-07T03:06:07;17.05;;;10.35;;
19879;SDS011;10102;50.828;4.416;2024-01-07T03:08:33;17.73;;;10.63;;
19879;SDS011;10102;50.828;4.416;2024-01-07T03:11:04;19.70;;;11.85;;
19879;SDS011;10102;50.828;4.416;2024-01-07T03:13:30;19.65;;;11.13;;
19879;SDS011;10102;50.828;4.416;2024-01-07T03:15:56;19.90;;;12.00;;
19879;SDS011;10102;50.828;4.416;2024-01-07T03:18:22;18.70;;;12.05;;
19879;SDS011;10102;50.828;4.416;2024-01-07T03:20:48;21.70;;;12.13;;
19879;SDS011;10102;50.828;4.416;2024-01-07T03:23:13;18.92;;;12.73;;
19879;SDS011;10102;50.828;4.416;2024-01-07T03:25:39;17.55;;;12.05;;
19879;SDS011;10102;50.828;4.416;2024-01-07T03:28:05;21.23;;;12.93;;
19879;SDS011;10102;50.828;4.416;2024-01-07T03:30:31;22.67;;;12.82;;
19879;SDS011;10102;50.828;4.416;2024-01-07T03:32:57;22.98;;;13.70;;
19879;SDS011;10102;50.828;4.416;2024-01-07T03:35:22;19.20;;;12.50;;
19879;SDS011;10102;50.828;4.416;2024-01-07T03:37:49;21.88;;;13.98;;
19879;SDS011;10102;50.828;4.416;2024-01-07T03:40:15;23.15;;;13.40;;
19879;SDS011;10102;50.828;4.416;2024-01-07T03:42:41;24.15;;;13.70;;
19879;SDS011;10102;50.828;4.416;2024-01-07T03:45:06;24.80;;;14.88;;
19879;SDS011;10102;50.828;4.416;2024-01-07T03:47:32;24.42;;;14.27;;
19879;SDS011;10102;50.828;4.416;2024-01-07T03:49:58;25.98;;;14.93;;
19879;SDS011;10102;50.828;4.416;2024-01-07T03:52:24;24.02;;;14.13;;
19879;SDS011;10102;50.828;4.416;2024-01-07T03:54:50;23.80;;;14.40;;
19879;SDS011;10102;50.828;4.416;2024-01-07T03:57:16;26.90;;;15.63;;
19879;SDS011;10102;50.828;4.416;2024-01-07T03:59:41;28.10;;;14.02;;
19879;SDS011;10102;50.828;4.416;2024-01-07T04:02:07;25.55;;;15.30;;
19879;SDS011;10102;50.828;4.416;2024-01-07T04:04:33;26.52;;;15.02;;
19879;SDS011;10102;50.828;4.416;2024-01-07T04:06:59;26.58;;;14.40;;
19879;SDS011;10102;50.828;4.416;2024-01-07T04:09:24;30.27;;;15.15;;
19879;SDS011;10102;50.828;4.416;2024-01-07T04:11:50;30.27;;;15.98;;
19879;SDS011;10102;50.828;4.416;2024-01-07T04:14:16;27.73;;;15.52;;
19879;SDS011;10102;50.828;4.416;2024-01-07T04:16:42;27.42;;;15.38;;
19879;SDS011;10102;50.828;4.416;2024-01-07T04:19:08;28.23;;;15.98;;
19879;SDS011;10102;50.828;4.416;2024-01-07T04:21:33;29.27;;;16.00;;
19879;SDS011;10102;50.828;4.416;2024-01-07T04:24:00;28.52;;;16.45;;
19879;SDS011;10102;50.828;4.416;2024-01-07T04:26:26;31.48;;;17.73;;
19879;SDS011;10102;50.828;4.416;2024-01-07T04:28:52;31.05;;;17.67;;
19879;SDS011;10102;50.828;4.416;2024-01-07T04:31:19;33.65;;;19.13;;
19879;SDS011;10102;50.828;4.416;2024-01-07T04:33:45;35.95;;;19.65;;
19879;SDS011;10102;50.828;4.416;2024-01-07T04:36:10;39.70;;;20.77;;
19879;SDS011;10102;50.828;4.416;2024-01-07T04:38:36;38.42;;;20.13;;
19879;SDS011;10102;50.828;4.416;2024-01-07T04:41:02;35.58;;;20.38;;
19879;SDS011;10102;50.828;4.416;2024-01-07T04:43:28;39.10;;;21.40;;
19879;SDS011;10102;50.828;4.416;2024-01-07T04:45:53;38.22;;;20.55;;
19879;SDS011;10102;50.828;4.416;2024-01-07T04:48:19;34.22;;;19.23;;
19879;SDS011;10102;50.828;4.416;2024-01-07T04:50:45;35.33;;;18.45;;
19879;SDS011;10102;50.828;4.416;2024-01-07T04:53:11;37.58;;;18.75;;
19879;SDS011;10102;50.828;4.416;2024-01-07T04:55:36;31.27;;;17.65;;
19879;SDS011;10102;50.828;4.416;2024-01-07T04:58:02;33.00;;;17.98;;
19879;SDS011;10102;50.828;4.416;2024-01-07T05:00:29;37.25;;;20.13;;
19879;SDS011;10102;50.828;4.416;2024-01-07T05:02:55;34.53;;;18.70;;
19879;SDS011;10102;50.828;4.416;2024-01-07T05:05:21;38.42;;;19.42;;
19879;SDS011;10102;50.828;4.416;2024-01-07T05:07:46;37.47;;;20.33;;
19879;SDS011;10102;50.828;4.416;2024-01-07T05:10:12;37.70;;;19.92;;
19879;SDS011;10102;50.828;4.416;2024-01-07T05:12:38;39.03;;;20.20;;
19879;SDS011;10102;50.828;4.416;2024-01-07T05:15:04;38.45;;;20.70;;
19879;SDS011;10102;50.828;4.416;2024-01-07T05:17:31;35.40;;;19.73;;
19879;SDS011;10102;50.828;4.416;2024-01-07T05:19:57;37.97;;;20.55;;
19879;SDS011;10102;50.828;4.416;2024-01-07T05:22:22;42.33;;;20.13;;
19879;SDS011;10102;50.828;4.416;2024-01-07T05:24:48;39.38;;;21.08;;
19879;SDS011;10102;50.828;4.416;2024-01-07T05:27:15;41.00;;;21.25;;
19879;SDS011;10102;50.828;4.416;2024-01-07T05:29:44;36.80;;;20.40;;
19879;SDS011;10102;50.828;4.416;2024-01-07T05:32:11;36.60;;;19.45;;
19879;SDS011;10102;50.828;4.416;2024-01-07T05:34:36;39.25;;;20.42;;
19879;SDS011;10102;50.828;4.416;2024-01-07T05:37:02;33.85;;;19.67;;
19879;SDS011;10102;50.828;4.416;2024-01-07T05:39:28;40.45;;;20.13;;
19879;SDS011;10102;50.828;4.416;2024-01-07T05:41:54;37.60;;;19.92;;
19879;SDS011;10102;50.828;4.416;2024-01-07T05:44:20;42.60;;;21.67;;
19879;SDS011;10102;50.828;4.416;2024-01-07T05:46:45;36.88;;;19.33;;
19879;SDS011;10102;50.828;4.416;2024-01-07T05:49:11;33.50;;;19.58;;
19879;SDS011;10102;50.828;4.416;2024-01-07T05:51:40;36.33;;;19.45;;
19879;SDS011;10102;50.828;4.416;2024-01-07T05:54:06;40.33;;;20.23;;
19879;SDS011;10102;50.828;4.416;2024-01-07T05:56:32;33.97;;;18.85;;
19879;SDS011;10102;50.828;4.416;2024-01-07T05:59:03;35.22;;;19.42;;
19879;SDS011;10102;50.828;4.416;2024-01-07T06:01:28;36.05;;;19.52;;
19879;SDS011;10102;50.828;4.416;2024-01-07T06:03:54;41.58;;;19.42;;
19879;SDS011;10102;50.828;4.416;2024-01-07T06:06:20;39.38;;;19.55;;
19879;SDS011;10102;50.828;4.416;2024-01-07T06:08:45;38.05;;;19.98;;
19879;SDS011;10102;50.828;4.416;2024-01-07T06:11:11;38.33;;;19.17;;
19879;SDS011;10102;50.828;4.416;2024-01-07T06:13:43;36.70;;;20.08;;
19879;SDS011;10102;50.828;4.416;2024-01-07T06:16:09;39.08;;;19.55;;
19879;SDS011;10102;50.828;4.416;2024-01-07T06:18:35;38.58;;;18.67;;
19879;SDS011;10102;50.828;4.416;2024-01-07T06:21:01;39.97;;;19.83;;
19879;SDS011;10102;50.828;4.416;2024-01-07T06:23:27;40.53;;;20.60;;
19879;SDS011;10102;50.828;4.416;2024-01-07T06:25:53;34.85;;;18.83;;
19879;SDS011;10102;50.828;4.416;2024-01-07T06:28:18;37.05;;;19.30;;
19879;SDS011;10102;50.828;4.416;2024-01-07T06:30:45;38.67;;;20.58;;
19879;SDS011;10102;50.828;4.416;2024-01-07T06:33:11;42.47;;;20.08;;
19879;SDS011;10102;50.828;4.416;2024-01-07T06:35:38;40.25;;;20.33;;
19879;SDS011;10102;50.828;4.416;2024-01-07T06:38:12;35.92;;;19.48;;
19879;SDS011;10102;50.828;4.416;2024-01-07T06:40:51;39.00;;;19.85;;
19879;SDS011;10102;50.828;4.416;2024-01-07T06:43:19;37.72;;;19.27;;
19879;SDS011;10102;50.828;4.416;2024-01-07T06:45:45;37.80;;;18.92;;
19879;SDS011;10102;50.828;4.416;2024-01-07T06:48:10;35.40;;;18.52;;
19879;SDS011;10102;50.828;4.416;2024-01-07T06:53:22;42.40;;;19.65;;
19879;SDS011;10102;50.828;4.416;2024-01-07T06:55:48;37.83;;;18.98;;
19879;SDS011;10102;50.828;4.416;2024-01-07T06:58:13;39.63;;;18.65;;
19879;SDS011;10102;50.828;4.416;2024-01-07T07:00:39;40.65;;;19.02;;
19879;SDS011;10102;50.828;4.416;2024-01-07T07:03:06;37.00;;;19.52;;
19879;SDS011;10102;50.828;4.416;2024-01-07T07:05:32;37.17;;;18.38;;
19879;SDS011;10102;50.828;4.416;2024-01-07T07:07:58;36.30;;;18.00;;
19879;SDS011;10102;50.828;4.416;2024-01-07T07:10:24;39.28;;;18.48;;
19879;SDS011;10102;50.828;4.416;2024-01-07T07:12:51;34.83;;;18.20;;
19879;SDS011;10102;50.828;4.416;2024-01-07T07:15:17;45.65;;;20.23;;
19879;SDS011;10102;50.828;4.416;2024-01-07T07:17:43;39.65;;;19.35;;
19879;SDS011;10102;50.828;4.416;2024-01-07T07:20:10;38.85;;;18.42;;
19879;SDS011;10102;50.828;4.416;2024-01-07T07:22:36;36.42;;;17.83;;
19879;SDS011;10102;50.828;4.416;2024-01-07T07:25:02;45.38;;;20.23;;
19879;SDS011;10102;50.828;4.416;2024-01-07T07:27:28;43.15;;;19.23;;
19879;SDS011;10102;50.828;4.416;2024-01-07T07:29:53;39.53;;;18.45;;
19879;SDS011;10102;50.828;4.416;2024-01-07T07:32:19;38.33;;;17.85;;
19879;SDS011;10102;50.828;4.416;2024-01-07T07:34:45;37.20;;;18.98;;
19879;SDS011;10102;50.828;4.416;2024-01-07T07:37:12;39.55;;;18.67;;
19879;SDS011;10102;50.828;4.416;2024-01-07T07:39:38;45.72;;;20.80;;
19879;SDS011;10102;50.828;4.416;2024-01-07T07:42:04;51.45;;;21.85;;
19879;SDS011;10102;50.828;4.416;2024-01-07T07:44:30;45.78;;;20.73;;
19879;SDS011;10102;50.828;4.416;2024-01-07T07:46:55;45.13;;;20.05;;
19879;SDS011;10102;50.828;4.416;2024-01-07T07:49:21;39.03;;;19.92;;
19879;SDS011;10102;50.828;4.416;2024-01-07T07:51:47;46.40;;;21.75;;
19879;SDS011;10102;50.828;4.416;2024-01-07T07:54:13;47.47;;;22.48;;
19879;SDS011;10102;50.828;4.416;2024-01-07T07:56:38;48.72;;;22.48;;
19879;SDS011;10102;50.828;4.416;2024-01-07T07:59:04;53.85;;;22.95;;
19879;SDS011;10102;50.828;4.416;2024-01-07T08:01:30;52.05;;;22.05;;
19879;SDS011;10102;50.828;4.416;2024-01-07T08:03:56;49.80;;;21.75;;
19879;SDS011;10102;50.828;4.416;2024-01-07T08:06:22;47.33;;;21.33;;
19879;SDS011;10102;50.828;4.416;2024-01-07T08:08:47;50.38;;;22.25;;
19879;SDS011;10102;50.828;4.416;2024-01-07T08:11:13;49.28;;;22.38;;
19879;SDS011;10102;50.828;4.416;2024-01-07T08:13:39;47.22;;;21.52;;
19879;SDS011;10102;50.828;4.416;2024-01-07T08:16:05;47.20;;;22.02;;
19879;SDS011;10102;50.828;4.416;2024-01-07T08:18:31;46.90;;;20.73;;
19879;SDS011;10102;50.828;4.416;2024-01-07T08:20:57;46.75;;;20.65;;
19879;SDS011;10102;50.828;4.416;2024-01-07T08:23:26;45.08;;;21.27;;
19879;SDS011;10102;50.828;4.416;2024-01-07T08:25:52;48.65;;;22.13;;
19879;SDS011;10102;50.828;4.416;2024-01-07T08:28:18;42.10;;;19.02;;
19879;SDS011;10102;50.828;4.416;2024-01-07T08:30:44;42.33;;;19.40;;
19879;SDS011;10102;50.828;4.416;2024-01-07T08:33:10;39.22;;;18.58;;
19879;SDS011;10102;50.828;4.416;2024-01-07T08:35:36;43.97;;;19.08;;
19879;SDS011;10102;50.828;4.416;2024-01-07T08:38:02;36.13;;;18.67;;
19879;SDS011;10102;50.828;4.416;2024-01-07T08:40:28;42.90;;;18.77;;
19879;SDS011;10102;50.828;4.416;2024-01-07T08:42:54;39.35;;;16.83;;
19879;SDS011;10102;50.828;4.416;2024-01-07T08:45:20;33.58;;;17.38;;
19879;SDS011;10102;50.828;4.416;2024-01-07T08:47:46;34.25;;;17.02;;
19879;SDS011;10102;50.828;4.416;2024-01-07T08:50:12;29.73;;;16.80;;
19879;SDS011;10102;50.828;4.416;2024-01-07T08:52:37;33.45;;;17.17;;
19879;SDS011;10102;50.828;4.416;2024-01-07T08:55:03;31.90;;;16.17;;
19879;SDS011;10102;50.828;4.416;2024-01-07T08:57:31;34.00;;;15.10;;
19879;SDS011;10102;50.828;4.416;2024-01-07T08:59:57;28.65;;;15.55;;
19879;SDS011;10102;50.828;4.416;2024-01-07T09:02:23;29.02;;;15.68;;
19879;SDS011;10102;50.828;4.416;2024-01-07T09:04:50;28.42;;;15.73;;
19879;SDS011;10102;50.828;4.416;2024-01-07T09:07:16;28.38;;;13.88;;
19879;SDS011;10102;50.828;4.416;2024-01-07T09:09:44;28.80;;;15.55;;
19879;SDS011;10102;50.828;4.416;2024-01-07T09:12:09;29.67;;;15.70;;
19879;SDS011;10102;50.828;4.416;2024-01-07T09:14:37;30.02;;;15.77;;
19879;SDS011;10102;50.828;4.416;2024-01-07T09:17:03;25.58;;;14.35;;
19879;SDS011;10102;50.828;4.416;2024-01-07T09:19:28;27.50;;;16.27;;
19879;SDS011;10102;50.828;4.416;2024-01-07T09:21:54;31.10;;;16.83;;
19879;SDS011;10102;50.828;4.416;2024-01-07T09:24:20;27.20;;;15.90;;
19879;SDS011;10102;50.828;4.416;2024-01-07T09:26:46;26.88;;;15.27;;
19879;SDS011;10102;50.828;4.416;2024-01-07T09:29:12;32.92;;;16.00;;
19879;SDS011;10102;50.828;4.416;2024-01-07T09:31:39;28.23;;;16.65;;
19879;SDS011;10102;50.828;4.416;2024-01-07T09:34:05;32.00;;;16.77;;
19879;SDS011;10102;50.828;4.416;2024-01-07T09:36:32;31.58;;;15.80;;
19879;SDS011;10102;50.828;4.416;2024-01-07T09:38:58;34.60;;;17.63;;
19879;SDS011;10102;50.828;4.416;2024-01-07T09:41:23;28.83;;;16.55;;
19879;SDS011;10102;50.828;4.416;2024-01-07T09:43:50;28.75;;;15.65;;
19879;SDS011;10102;50.828;4.416;2024-01-07T09:46:17;28.63;;;16.00;;
19879;SDS011;10102;50.828;4.416;2024-01-07T09:48:42;29.90;;;14.82;;
19879;SDS011;10102;50.828;4.416;2024-01-07T09:51:09;27.05;;;14.18;;
19879;SDS011;10102;50.828;4.416;2024-01-07T09:53:36;27.25;;;14.75;;
19879;SDS011;10102;50.828;4.416;2024-01-07T09:58:41;30.25;;;16.15;;
19879;SDS011;10102;50.828;4.416;2024-01-07T10:01:07;29.30;;;16.25;;
19879;SDS011;10102;50.828;4.416;2024-01-07T10:03:34;27.33;;;16.58;;
19879;SDS011;10102;50.828;4.416;2024-01-07T10:06:00;28.83;;;15.95;;
19879;SDS011;10102;50.828;4.416;2024-01-07T10:08:25;29.65;;;16.05;;
19879;SDS011;10102;50.828;4.416;2024-01-07T10:10:51;26.73;;;15.73;;
19879;SDS011;10102;50.828;4.416;2024-01-07T10:13:19;31.33;;;16.90;;
19879;SDS011;10102;50.828;4.416;2024-01-07T10:15:45;29.75;;;16.73;;
19879;SDS011;10102;50.828;4.416;2024-01-07T10:18:12;28.83;;;16.52;;
19879;SDS011;10102;50.828;4.416;2024-01-07T10:20:39;29.90;;;16.50;;
19879;SDS011;10102;50.828;4.416;2024-01-07T10:23:05;28.90;;;16.35;;
19879;SDS011;10102;50.828;4.416;2024-01-07T10:25:33;29.25;;;17.25;;
19879;SDS011;10102;50.828;4.416;2024-01-07T10:28:00;27.92;;;15.85;;
19879;SDS011;10102;50.828;4.416;2024-01-07T10:30:27;30.67;;;16.10;;
19879;SDS011;10102;50.828;4.416;2024-01-07T10:32:59;32.78;;;17.10;;
19879;SDS011;10102;50.828;4.416;2024-01-07T10:35:27;29.55;;;17.40;;
19879;SDS011;10102;50.828;4.416;2024-01-07T10:37:58;30.90;;;17.67;;
19879;SDS011;10102;50.828;4.416;2024-01-07T10:40:28;34.03;;;17.25;;
19879;SDS011;10102;50.828;4.416;2024-01-07T10:42:55;32.00;;;17.02;;
19879;SDS011;10102;50.828;4.416;2024-01-07T10:45:22;24.25;;;15.07;;
19879;SDS011;10102;50.828;4.416;2024-01-07T10:47:48;33.42;;;18.23;;
19879;SDS011;10102;50.828;4.416;2024-01-07T10:50:16;32.78;;;17.63;;
19879;SDS011;10102;50.828;4.416;2024-01-07T10:52:43;29.70;;;17.73;;
19879;SDS011;10102;50.828;4.416;2024-01-07T10:55:13;35.50;;;19.02;;
19879;SDS011;10102;50.828;4.416;2024-01-07T10:57:43;32.45;;;18.15;;
19879;SDS011;10102;50.828;4.416;2024-01-07T11:00:15;33.03;;;18.48;;
19879;SDS011;10102;50.828;4.416;2024-01-07T11:02:55;28.98;;;17.38;;
19879;SDS011;10102;50.828;4.416;2024-01-07T11:05:51;34.90;;;18.13;;
19879;SDS011;10102;50.828;4.416;2024-01-07T11:10:58;30.60;;;17.80;;
19879;SDS011;10102;50.828;4.416;2024-01-07T11:13:36;32.90;;;17.08;;
19879;SDS011;10102;50.828;4.416;2024-01-07T11:16:03;27.52;;;17.40;;
19879;SDS011;10102;50.828;4.416;2024-01-07T11:18:30;31.00;;;18.27;;
19879;SDS011;10102;50.828;4.416;2024-01-07T11:21:01;31.60;;;17.83;;
19879;SDS011;10102;50.828;4.416;2024-01-07T11:23:34;28.42;;;16.60;;
19879;SDS011;10102;50.828;4.416;2024-01-07T11:26:03;28.60;;;16.25;;
19879;SDS011;10102;50.828;4.416;2024-01-07T11:28:45;26.67;;;17.00;;
19879;SDS011;10102;50.828;4.416;2024-01-07T11:31:13;25.90;;;14.65;;
19879;SDS011;10102;50.828;4.416;2024-01-07T11:33:47;31.13;;;15.35;;
19879;SDS011;10102;50.828;4.416;2024-01-07T11:36:15;25.88;;;14.18;;
19879;SDS011;10102;50.828;4.416;2024-01-07T11:38:44;28.25;;;14.85;;
19879;SDS011;10102;50.828;4.416;2024-01-07T11:41:12;26.08;;;13.30;;
19879;SDS011;10102;50.828;4.416;2024-01-07T11:44:01;24.17;;;13.60;;
19879;SDS011;10102;50.828;4.416;2024-01-07T11:46:29;22.52;;;13.07;;
19879;SDS011;10102;50.828;4.416;2024-01-07T11:48:58;27.40;;;14.70;;
19879;SDS011;10102;50.828;4.416;2024-01-07T11:51:25;24.70;;;13.63;;
19879;SDS011;10102;50.828;4.416;2024-01-07T11:53:52;24.92;;;14.20;;
19879;SDS011;10102;50.828;4.416;2024-01-07T11:56:18;24.88;;;13.40;;
19879;SDS011;10102;50.828;4.416;2024-01-07T11:58:44;23.33;;;12.15;;
19879;SDS011;10102;50.828;4.416;2024-01-07T12:01:10;26.08;;;13.40;;
19879;SDS011;10102;50.828;4.416;2024-01-07T12:03:36;27.60;;;13.30;;
19879;SDS011;10102;50.828;4.416;2024-01-07T12:06:02;28.10;;;13.65;;
19879;SDS011;10102;50.828;4.416;2024-01-07T12:08:29;23.90;;;13.82;;
19879;SDS011;10102;50.828;4.416;2024-01-07T12:10:55;23.42;;;13.00;;
19879;SDS011;10102;50.828;4.416;2024-01-07T12:13:21;24.70;;;13.75;;
19879;SDS011;10102;50.828;4.416;2024-01-07T12:15:47;23.92;;;14.50;;
19879;SDS011;10102;50.828;4.416;2024-01-07T12:18:13;23.08;;;13.95;;
19879;SDS011;10102;50.828;4.416;2024-01-07T12:20:40;25.17;;;14.07;;
19879;SDS011;10102;50.828;4.416;2024-01-07T12:23:09;23.80;;;12.93;;
19879;SDS011;10102;50.828;4.416;2024-01-07T12:25:35;27.35;;;14.55;;
19879;SDS011;10102;50.828;4.416;2024-01-07T12:28:02;28.13;;;13.48;;
19879;SDS011;10102;50.828;4.416;2024-01-07T12:30:31;23.15;;;12.02;;
19879;SDS011;10102;50.828;4.416;2024-01-07T12:32:57;23.55;;;13.43;;
19879;SDS011;10102;50.828;4.416;2024-01-07T12:35:26;22.60;;;13.27;;
19879;SDS011;10102;50.828;4.416;2024-01-07T12:37:53;24.33;;;13.68;;
19879;SDS011;10102;50.828;4.416;2024-01-07T12:40:19;25.75;;;13.55;;
19879;SDS011;10102;50.828;4.416;2024-01-07T12:42:45;22.23;;;12.98;;
19879;SDS011;10102;50.828;4.416;2024-01-07T12:45:14;23.83;;;13.55;;
19879;SDS011;10102;50.828;4.416;2024-01-07T12:47:41;25.48;;;14.40;;
19879;SDS011;10102;50.828;4.416;2024-01-07T12:50:07;24.17;;;12.90;;
19879;SDS011;10102;50.828;4.416;2024-01-07T12:52:35;22.02;;;12.70;;
19879;SDS011;10102;50.828;4.416;2024-01-07T12:55:06;21.23;;;12.77;;
19879;SDS011;10102;50.828;4.416;2024-01-07T12:57:32;21.00;;;12.38;;
19879;SDS011;10102;50.828;4.416;2024-01-07T12:59:59;19.73;;;11.77;;
19879;SDS011;10102;50.828;4.416;2024-01-07T13:02:25;21.27;;;12.48;;
19879;SDS011;10102;50.828;4.416;2024-01-07T13:04:51;23.23;;;12.57;;
19879;SDS011;10102;50.828;4.416;2024-01-07T13:07:17;20.52;;;12.00;;
19879;SDS011;10102;50.828;4.416;2024-01-07T13:09:42;20.75;;;11.57;;
19879;SDS011;10102;50.828;4.416;2024-01-07T13:12:09;20.30;;;11.85;;
19879;SDS011;10102;50.828;4.416;2024-01-07T13:14:36;20.40;;;11.70;;
19879;SDS011;10102;50.828;4.416;2024-01-07T13:17:01;23.50;;;11.07;;
19879;SDS011;10102;50.828;4.416;2024-01-07T13:19:28;22.20;;;12.20;;
19879;SDS011;10102;50.828;4.416;2024-01-07T13:21:55;22.25;;;11.85;;
19879;SDS011;10102;50.828;4.416;2024-01-07T13:24:23;20.45;;;11.70;;
19879;SDS011;10102;50.828;4.416;2024-01-07T13:26:50;25.33;;;12.07;;
19879;SDS011;10102;50.828;4.416;2024-01-07T13:29:15;18.67;;;11.75;;
19879;SDS011;10102;50.828;4.416;2024-01-07T13:31:41;21.30;;;12.50;;
19879;SDS011;10102;50.828;4.416;2024-01-07T13:34:07;21.10;;;11.68;;
19879;SDS011;10102;50.828;4.416;2024-01-07T13:36:33;20.25;;;11.93;;
19879;SDS011;10102;50.828;4.416;2024-01-07T13:38:59;17.35;;;11.77;;
19879;SDS011;10102;50.828;4.416;2024-01-07T13:41:25;18.38;;;11.60;;
19879;SDS011;10102;50.828;4.416;2024-01-07T13:43:54;19.40;;;12.48;;
19879;SDS011;10102;50.828;4.416;2024-01-07T13:46:21;22.23;;;12.15;;
19879;SDS011;10102;50.828;4.416;2024-01-07T13:48:48;21.35;;;11.40;;
19879;SDS011;10102;50.828;4.416;2024-01-07T13:51:14;19.95;;;12.23;;
19879;SDS011;10102;50.828;4.416;2024-01-07T13:53:40;21.05;;;12.77;;
19879;SDS011;10102;50.828;4.416;2024-01-07T13:56:06;19.65;;;11.95;;
19879;SDS011;10102;50.828;4.416;2024-01-07T13:58:32;19.45;;;12.30;;
19879;SDS011;10102;50.828;4.416;2024-01-07T14:00:58;18.23;;;11.73;;
19879;SDS011;10102;50.828;4.416;2024-01-07T14:03:23;18.45;;;11.60;;
19879;SDS011;10102;50.828;4.416;2024-01-07T14:05:49;20.13;;;12.30;;
19879;SDS011;10102;50.828;4.416;2024-01-07T14:08:16;16.90;;;11.15;;
19879;SDS011;10102;50.828;4.416;2024-01-07T14:10:42;17.17;;;11.13;;
19879;SDS011;10102;50.828;4.416;2024-01-07T14:13:08;17.70;;;11.15;;
19879;SDS011;10102;50.828;4.416;2024-01-07T14:15:34;17.48;;;11.02;;
19879;SDS011;10102;50.828;4.416;2024-01-07T14:17:59;19.23;;;11.10;;
19879;SDS011;10102;50.828;4.416;2024-01-07T14:20:25;18.17;;;10.93;;
19879;SDS011;10102;50.828;4.416;2024-01-07T14:22:53;16.83;;;10.85;;
19879;SDS011;10102;50.828;4.416;2024-01-07T14:25:19;18.80;;;12.40;;
19879;SDS011;10102;50.828;4.416;2024-01-07T14:27:45;17.00;;;11.10;;